createdAt,value
2018-09-15T00:00:47.762Z,5.43
2018-09-15T00:03:52.742Z,5.47
2018-09-15T00:06:57.697Z,5.17
2018-09-15T00:10:02.737Z,5.57
2018-09-15T00:13:07.954Z,5.87
2018-09-15T00:16:12.979Z,5.70
2018-09-15T00:19:17.962Z,5.83
2018-09-15T00:22:22.935Z,5.93
2018-09-15T00:25:27.911Z,5.90
2018-09-15T00:28:32.865Z,5.73
2018-09-15T00:31:38.142Z,5.93
2018-09-15T00:34:43.143Z,5.57
2018-09-15T00:37:48.150Z,5.47
2018-09-15T00:40:53.099Z,6.50
2018-09-15T00:43:58.075Z,5.43
2018-09-15T00:47:03.072Z,5.90
2018-09-15T00:50:08.034Z,6.00
2018-09-15T00:53:12.985Z,5.40
2018-09-15T00:56:17.924Z,5.30
2018-09-15T00:59:22.966Z,5.47
2018-09-15T01:02:27.897Z,5.70
2018-09-15T01:05:32.829Z,5.23
2018-09-15T01:08:37.780Z,5.70
2018-09-15T01:11:42.713Z,5.87
2018-09-15T01:14:47.669Z,6.03
2018-09-15T01:17:52.604Z,5.03
2018-09-15T01:20:57.571Z,5.47
2018-09-15T01:24:02.544Z,6.00
2018-09-15T01:27:07.549Z,5.40
2018-09-15T01:30:12.528Z,5.70
2018-09-15T01:33:17.477Z,5.33
2018-09-15T01:36:22.981Z,5.70
2018-09-15T01:39:27.925Z,5.20
2018-09-15T01:42:32.904Z,4.77
2018-09-15T01:45:37.853Z,5.73
2018-09-15T01:48:42.930Z,5.43
2018-09-15T01:51:47.900Z,4.43
2018-09-15T01:54:52.849Z,4.83
2018-09-15T01:57:57.815Z,4.83
2018-09-15T02:01:02.837Z,4.43
2018-09-15T02:04:08.104Z,4.47
2018-09-15T02:07:13.094Z,4.60
2018-09-15T02:10:18.037Z,4.93
2018-09-15T02:13:23.528Z,5.07
2018-09-15T02:16:28.491Z,5.07
2018-09-15T02:19:33.441Z,4.50
2018-09-15T02:22:38.429Z,4.90
2018-09-15T02:25:43.365Z,5.00
2018-09-15T02:28:48.375Z,5.20
2018-09-15T02:31:53.334Z,4.53
2018-09-15T02:34:58.334Z,4.27
2018-09-15T02:38:03.282Z,5.23
2018-09-15T02:41:08.266Z,4.77
2018-09-15T02:44:13.220Z,4.40
2018-09-15T02:47:18.189Z,4.50
2018-09-15T02:50:23.194Z,5.40
2018-09-15T02:53:28.302Z,4.60
2018-09-15T02:56:33.253Z,4.60
2018-09-15T02:59:38.217Z,4.20
2018-09-15T03:02:43.190Z,4.03
2018-09-15T03:05:48.147Z,4.73
2018-09-15T03:08:53.094Z,4.53
2018-09-15T03:11:58.110Z,5.20
2018-09-15T03:15:03.082Z,4.03
2018-09-15T03:18:08.048Z,4.50
2018-09-15T03:21:13.041Z,4.43
2018-09-15T03:24:17.969Z,4.33
2018-09-15T03:27:22.972Z,4.77
2018-09-15T03:30:27.973Z,4.17
2018-09-15T03:33:32.917Z,4.90
2018-09-15T03:36:37.869Z,4.70
2018-09-15T03:39:42.847Z,3.70
2018-09-15T03:42:47.799Z,4.60
2018-09-15T03:45:52.789Z,4.53
2018-09-15T03:48:57.734Z,4.70
2018-09-15T03:52:03.435Z,5.00
2018-09-15T03:55:08.501Z,4.33
2018-09-15T03:58:13.466Z,4.37
2018-09-15T04:01:18.416Z,4.47
2018-09-15T04:04:23.382Z,4.33
2018-09-15T04:07:28.333Z,4.50
2018-09-15T04:10:33.279Z,3.80
2018-09-15T04:13:38.278Z,4.60
2018-09-15T04:16:43.340Z,4.70
2018-09-15T04:19:48.284Z,3.90
2018-09-15T04:22:53.252Z,4.67
2018-09-15T04:25:58.302Z,4.73
2018-09-15T04:29:03.281Z,4.53
2018-09-15T04:32:08.233Z,4.20
2018-09-15T04:35:13.181Z,4.40
2018-09-15T04:38:18.130Z,4.67
2018-09-15T04:41:23.091Z,5.03
2018-09-15T04:44:28.059Z,5.53
2018-09-15T04:47:33.013Z,4.73
2018-09-15T04:50:37.977Z,4.50
2018-09-15T04:53:42.945Z,4.37
2018-09-15T04:56:47.889Z,4.47
2018-09-15T04:59:52.826Z,4.30
2018-09-15T05:02:57.798Z,4.83
2018-09-15T05:06:02.733Z,4.50
2018-09-15T05:09:09.359Z,4.20
2018-09-15T05:12:14.298Z,4.47
2018-09-15T05:15:19.225Z,3.53
2018-09-15T05:18:24.173Z,4.23
2018-09-15T05:21:29.108Z,4.37
2018-09-15T05:24:34.040Z,4.07
2018-09-15T05:27:39.020Z,4.67
2018-09-15T05:30:43.993Z,4.40
2018-09-15T05:33:48.925Z,4.10
2018-09-15T05:36:53.971Z,3.87
2018-09-15T05:39:58.939Z,4.40
2018-09-15T05:43:03.842Z,4.00
2018-09-15T05:46:08.953Z,4.30
2018-09-15T05:49:14.011Z,4.57
2018-09-15T05:52:19.029Z,4.73
2018-09-15T05:55:24.080Z,4.77
2018-09-15T05:58:29.032Z,4.37
2018-09-15T06:01:34.196Z,4.90
2018-09-15T06:04:39.169Z,5.40
2018-09-15T06:07:44.297Z,5.13
2018-09-15T06:10:49.217Z,4.83
2018-09-15T06:13:54.186Z,5.00
2018-09-15T06:16:59.141Z,5.03
2018-09-15T06:20:04.363Z,4.73
2018-09-15T06:23:09.472Z,4.97
2018-09-15T06:26:14.877Z,4.77
2018-09-15T06:29:19.901Z,5.00
2018-09-15T06:32:24.875Z,6.13
2018-09-15T06:35:29.902Z,5.70
2018-09-15T06:38:34.865Z,5.73
2018-09-15T06:41:39.850Z,5.80
2018-09-15T06:44:44.894Z,5.47
2018-09-15T06:47:49.861Z,5.40
2018-09-15T06:50:55.082Z,4.80
2018-09-15T06:54:00.599Z,4.50
2018-09-15T06:57:05.585Z,5.40
2018-09-15T07:00:10.551Z,5.93
2018-09-15T07:03:15.532Z,4.60
2018-09-15T07:06:20.466Z,5.33
2018-09-15T07:09:25.508Z,4.67
2018-09-15T07:12:30.595Z,5.00
2018-09-15T07:15:35.601Z,5.43
2018-09-15T07:18:40.646Z,5.63
2018-09-15T07:21:45.616Z,5.10
2018-09-15T07:24:50.774Z,4.60
2018-09-15T07:27:55.753Z,5.13
2018-09-15T07:31:00.725Z,4.40
2018-09-15T07:34:05.949Z,4.80
2018-09-15T07:37:10.933Z,4.67
2018-09-15T07:40:15.900Z,4.10
2018-09-15T07:43:20.833Z,3.60
2018-09-15T07:46:25.810Z,3.40
2018-09-15T07:49:30.944Z,3.40
2018-09-15T07:52:35.885Z,3.10
2018-09-15T07:55:40.857Z,3.60
2018-09-15T07:58:45.861Z,2.90
2018-09-15T08:01:51.069Z,2.80
2018-09-15T08:04:56.002Z,2.30
2018-09-15T08:08:00.980Z,2.20
2018-09-15T08:11:06.033Z,2.33
2018-09-15T08:14:11.037Z,2.90
2018-09-15T08:17:16.081Z,2.67
2018-09-15T08:20:21.145Z,2.47
2018-09-15T08:23:26.177Z,2.60
2018-09-15T08:26:31.223Z,2.40
2018-09-15T08:29:36.285Z,2.07
2018-09-15T08:32:41.242Z,1.97
2018-09-15T08:35:46.221Z,2.30
2018-09-15T08:38:51.183Z,1.80
2018-09-15T08:41:56.169Z,2.50
2018-09-15T08:45:01.206Z,3.03
2018-09-15T08:48:06.329Z,3.40
2018-09-15T08:51:11.295Z,3.60
2018-09-15T08:54:16.282Z,3.80
2018-09-15T08:57:21.290Z,2.90
2018-09-15T09:00:26.260Z,3.57
2018-09-15T09:03:31.260Z,4.00
2018-09-15T09:06:36.239Z,5.47
2018-09-15T09:09:41.263Z,4.33
2018-09-15T09:12:46.273Z,3.80
2018-09-15T09:15:51.238Z,3.60
2018-09-15T09:18:56.290Z,4.13
2018-09-15T09:22:01.304Z,3.93
2018-09-15T09:25:06.386Z,3.40
2018-09-15T09:28:11.481Z,3.97
2018-09-15T09:31:16.492Z,3.60
2018-09-15T09:34:21.547Z,3.67
2018-09-15T09:37:26.608Z,3.50
2018-09-15T09:40:31.604Z,3.40
2018-09-15T09:43:36.611Z,3.80
2018-09-15T09:46:41.716Z,3.10
2018-09-15T09:49:46.692Z,3.00
2018-09-15T09:52:51.686Z,3.77
2018-09-15T09:55:56.725Z,2.63
2018-09-15T10:02:12.714Z,2.37
2018-09-15T10:05:17.720Z,2.73
2018-09-15T10:08:22.734Z,2.10
2018-09-15T10:11:27.753Z,1.93
2018-09-15T10:14:32.760Z,1.80
2018-09-15T10:17:37.846Z,1.77
2018-09-15T10:20:43.073Z,1.77
2018-09-15T10:23:48.203Z,2.00
2018-09-15T10:26:53.249Z,1.60
2018-09-15T10:29:58.290Z,2.10
2018-09-15T10:33:03.364Z,1.50
2018-09-15T10:36:08.371Z,1.40
2018-09-15T10:39:13.444Z,1.20
2018-09-15T10:42:18.512Z,1.40
2018-09-15T10:45:23.573Z,1.10
2018-09-15T10:48:28.635Z,1.60
2018-09-15T10:51:33.632Z,1.50
2018-09-15T10:54:38.676Z,1.37
2018-09-15T10:57:43.753Z,3.93
2018-09-15T11:00:48.837Z,1.60
2018-09-15T11:03:53.884Z,1.90
2018-09-15T11:06:58.956Z,1.50
2018-09-15T11:10:04.035Z,1.20
2018-09-15T11:13:09.065Z,1.10
2018-09-15T11:26:59.317Z,1.20
2018-09-15T11:30:04.568Z,1.10
2018-09-15T11:33:09.816Z,0.90
2018-09-15T11:36:15.014Z,0.90
2018-09-15T11:39:20.059Z,1.17
2018-09-15T11:42:25.161Z,1.70
2018-09-15T11:45:30.148Z,1.23
2018-09-15T11:48:35.121Z,1.00
2018-09-15T11:51:40.093Z,1.17
2018-09-15T11:54:45.090Z,1.07
2018-09-15T11:57:50.208Z,1.20
2018-09-15T12:00:57.691Z,1.37
2018-09-15T12:04:02.739Z,1.17
2018-09-15T12:07:07.742Z,1.37
2018-09-15T12:10:12.829Z,1.17
2018-09-15T12:13:17.885Z,0.97
2018-09-15T12:16:22.932Z,1.27
2018-09-15T12:19:28.001Z,0.83
2018-09-15T12:22:33.052Z,1.00
2018-09-15T12:25:38.135Z,0.93
2018-09-15T12:28:43.149Z,1.00
2018-09-15T12:31:48.175Z,0.90
2018-09-15T12:34:53.227Z,0.80
2018-09-15T12:37:58.256Z,1.00
2018-09-15T12:41:03.260Z,0.90
2018-09-15T12:44:08.278Z,0.80
2018-09-15T12:47:14.291Z,0.83
2018-09-15T12:50:19.515Z,1.03
2018-09-15T12:53:24.468Z,0.80
2018-09-15T12:56:29.396Z,0.60
2018-09-15T12:59:34.411Z,0.83
2018-09-15T13:02:39.416Z,0.93
2018-09-15T13:06:48.129Z,0.67
2018-09-15T13:09:53.172Z,0.90
2018-09-15T13:12:58.181Z,0.80
2018-09-15T13:16:03.188Z,0.80
2018-09-15T13:19:08.404Z,0.80
2018-09-15T13:22:13.429Z,0.80
2018-09-15T13:25:18.553Z,0.77
2018-09-15T13:28:23.597Z,0.80
2018-09-15T13:31:28.982Z,0.70
2018-09-15T13:34:34.043Z,0.90
2018-09-15T13:37:39.291Z,0.70
2018-09-15T13:40:44.425Z,0.80
2018-09-15T13:43:49.421Z,0.80
2018-09-15T13:46:54.443Z,0.70
2018-09-15T13:49:59.515Z,0.80
2018-09-15T13:53:05.136Z,0.67
2018-09-15T13:56:10.285Z,0.80
2018-09-15T13:59:15.858Z,0.90
2018-09-15T14:02:21.060Z,0.80
2018-09-15T14:05:26.048Z,0.80
2018-09-15T14:08:31.024Z,0.90
2018-09-15T14:11:36.269Z,0.73
2018-09-15T14:14:41.275Z,0.80
2018-09-15T14:17:46.358Z,0.77
2018-09-15T14:20:51.413Z,0.77
2018-09-15T14:23:56.469Z,0.63
2018-09-15T14:27:01.584Z,1.07
2018-09-15T14:30:06.615Z,0.90
2018-09-15T14:33:11.817Z,0.70
2018-09-15T14:36:16.970Z,0.80
2018-09-15T14:39:21.923Z,0.67
2018-09-15T14:42:27.017Z,0.93
2018-09-15T14:45:32.133Z,1.03
2018-09-15T14:48:37.110Z,0.70
2018-09-15T14:51:42.265Z,0.70
2018-09-15T14:54:48.113Z,0.87
2018-09-15T14:57:53.826Z,0.70
2018-09-15T15:00:58.994Z,1.00
2018-09-15T15:04:04.041Z,0.63
2018-09-15T15:07:09.124Z,0.87
2018-09-15T15:10:14.085Z,0.70
2018-09-15T15:13:19.034Z,0.60
2018-09-15T15:16:24.042Z,0.63
2018-09-15T15:19:29.053Z,0.80
2018-09-15T15:22:34.143Z,0.73
2018-09-15T15:25:39.150Z,1.20
2018-09-15T15:28:44.245Z,1.10
2018-09-15T15:31:49.276Z,1.00
2018-09-15T15:34:54.499Z,0.80
2018-09-15T15:37:59.511Z,0.80
2018-09-15T15:41:04.880Z,0.90
2018-09-15T15:44:09.942Z,1.00
2018-09-15T15:47:15.098Z,1.13
2018-09-15T15:50:20.229Z,0.80
2018-09-15T15:53:25.385Z,1.10
2018-09-15T15:56:30.465Z,1.10
2018-09-15T15:59:35.536Z,1.70
2018-09-15T16:02:40.550Z,3.67
2018-09-15T16:05:45.588Z,1.00
2018-09-15T16:08:51.076Z,1.00
2018-09-15T16:11:56.253Z,0.93
2018-09-15T16:15:01.349Z,1.07
2018-09-15T16:18:06.369Z,1.07
2018-09-15T16:21:11.575Z,1.20
2018-09-15T16:24:16.607Z,0.83
2018-09-15T16:27:21.561Z,1.23
2018-09-15T16:30:26.554Z,0.90
2018-09-15T16:33:31.524Z,1.10
2018-09-15T16:36:36.511Z,1.10
2018-09-15T16:39:41.727Z,1.00
2018-09-15T16:42:46.762Z,2.40
2018-09-15T16:45:51.889Z,2.37
2018-09-15T16:48:57.059Z,1.90
2018-09-15T16:52:02.234Z,1.20
2018-09-15T16:55:07.698Z,1.40
2018-09-15T16:58:12.715Z,1.30
2018-09-15T17:01:18.132Z,1.40
2018-09-15T17:04:23.070Z,2.20
2018-09-15T17:07:28.102Z,3.37
2018-09-15T17:10:39.520Z,3.53
2018-09-15T17:13:45.988Z,1.60
2018-09-15T17:16:50.917Z,2.60
2018-09-15T17:23:22.942Z,2.13
2018-09-15T17:26:29.064Z,1.47
2018-09-15T17:29:34.412Z,1.60
2018-09-15T17:32:46.590Z,1.50
2018-09-15T17:35:52.684Z,1.37
2018-09-15T17:38:57.900Z,1.50
2018-09-15T17:42:03.845Z,1.80
2018-09-15T17:45:08.954Z,1.70
2018-09-15T17:48:14.553Z,1.70
2018-09-15T17:51:19.674Z,1.63
2018-09-15T17:54:25.645Z,1.40
2018-09-15T17:57:30.594Z,1.10
2018-09-15T18:00:35.779Z,1.43
2018-09-15T18:03:40.779Z,1.20
2018-09-15T18:06:45.687Z,1.50
2018-09-15T18:09:50.865Z,3.87
2018-09-15T18:12:55.805Z,7.73
2018-09-15T18:16:02.077Z,6.50
2018-09-15T18:19:07.034Z,3.37
2018-09-15T18:22:12.449Z,2.53
2018-09-15T18:25:17.669Z,2.30
2018-09-15T18:28:22.661Z,1.80
2018-09-15T18:31:27.599Z,2.60
2018-09-15T18:34:32.540Z,3.47
2018-09-15T18:37:37.468Z,4.23
2018-09-15T18:40:42.495Z,5.30
2018-09-15T18:43:47.947Z,3.40
2018-09-15T18:46:52.900Z,2.60
2018-09-15T18:49:57.854Z,4.17
2018-09-15T18:53:02.848Z,5.47
2018-09-15T18:56:08.223Z,6.23
2018-09-15T18:59:13.326Z,5.63
2018-09-15T19:02:18.310Z,5.00
2018-09-15T19:05:23.273Z,2.57
2018-09-15T19:08:28.239Z,3.30
2018-09-15T19:11:33.457Z,4.33
2018-09-15T19:14:38.703Z,3.87
2018-09-15T19:17:43.734Z,2.77
2018-09-15T19:20:48.661Z,3.17
2018-09-15T19:23:53.638Z,3.00
2018-09-15T19:26:58.626Z,2.83
2018-09-15T19:30:04.009Z,21.13
2018-09-15T19:33:09.072Z,3.23
2018-09-15T19:36:14.196Z,3.23
2018-09-15T19:39:20.578Z,2.80
2018-09-15T19:42:26.081Z,5.47
2018-09-15T19:45:31.258Z,3.60
2018-09-15T19:48:36.249Z,2.90
2018-09-15T19:51:41.445Z,2.93
2018-09-15T19:54:46.412Z,4.10
2018-09-15T19:57:51.350Z,4.10
2018-09-15T20:00:56.310Z,3.10
2018-09-15T20:04:01.360Z,2.53
2018-09-15T20:07:06.310Z,2.00
2018-09-15T20:10:11.716Z,2.27
2018-09-15T20:13:16.731Z,2.00
2018-09-15T20:16:21.077Z,1.90
2018-09-15T20:19:25.254Z,2.00
2018-09-15T20:22:30.529Z,2.30
2018-09-15T20:25:35.480Z,2.07
2018-09-15T20:28:40.429Z,3.07
2018-09-15T20:31:45.876Z,3.67
2018-09-15T20:34:51.009Z,4.03
2018-09-15T20:37:56.005Z,3.47
2018-09-15T20:41:00.904Z,2.77
2018-09-15T20:44:06.099Z,2.03
2018-09-15T20:47:11.102Z,2.30
2018-09-15T20:50:16.360Z,2.50
2018-09-15T20:53:21.401Z,2.40
2018-09-15T20:56:26.314Z,1.60
2018-09-15T20:59:31.259Z,1.70
2018-09-15T21:02:36.224Z,2.00
2018-09-15T21:05:41.512Z,2.17
2018-09-15T21:08:46.481Z,1.80
2018-09-15T21:11:51.746Z,2.00
2018-09-15T21:14:56.946Z,2.13
2018-09-15T21:18:01.907Z,2.13
2018-09-15T21:21:06.856Z,1.80
2018-09-15T21:24:11.806Z,1.53
2018-09-15T21:27:16.993Z,1.70
2018-09-15T21:30:21.934Z,1.97
2018-09-15T21:33:26.903Z,2.00
2018-09-15T21:36:31.857Z,1.80
2018-09-15T21:39:36.810Z,1.50
2018-09-15T21:42:42.077Z,2.00
2018-09-15T21:45:47.025Z,1.90
2018-09-15T21:48:52.086Z,1.63
2018-09-15T21:51:57.030Z,2.07
2018-09-15T21:55:02.073Z,1.80
2018-09-15T21:58:07.145Z,2.00
2018-09-15T22:01:13.450Z,1.80
2018-09-15T22:04:18.993Z,2.00
2018-09-15T22:07:23.970Z,2.10
2018-09-15T22:10:28.935Z,2.80
2018-09-15T22:13:33.895Z,1.57
2018-09-15T22:16:39.318Z,1.93
2018-09-15T22:19:44.254Z,2.13
2018-09-15T22:22:49.486Z,2.17
2018-09-15T22:25:54.848Z,1.53
2018-09-15T22:29:00.169Z,1.87
2018-09-15T22:32:05.648Z,1.80
2018-09-15T22:35:10.589Z,2.20
2018-09-15T22:38:15.849Z,2.43
2018-09-15T22:41:20.908Z,2.07
2018-09-15T22:44:25.843Z,1.73
2018-09-15T22:47:30.757Z,2.10
2018-09-15T22:50:35.731Z,1.83
2018-09-15T22:53:40.678Z,1.80
2018-09-15T22:56:45.609Z,1.77
2018-09-15T22:59:50.545Z,1.57
2018-09-15T23:02:55.457Z,2.03
2018-09-15T23:06:00.414Z,1.90
2018-09-15T23:09:06.838Z,2.00
2018-09-15T23:12:11.768Z,1.80
2018-09-15T23:15:16.806Z,2.10
2018-09-15T23:18:21.721Z,2.03
2018-09-15T23:21:26.655Z,1.80
2018-09-15T23:24:31.580Z,1.63
2018-09-15T23:27:36.528Z,2.07
2018-09-15T23:30:41.469Z,1.90
2018-09-15T23:33:46.394Z,2.00
2018-09-15T23:36:51.745Z,2.20
2018-09-15T23:39:56.676Z,1.83
2018-09-15T23:43:01.754Z,2.13
2018-09-15T23:46:07.091Z,2.30
2018-09-15T23:49:12.008Z,1.77
2018-09-15T23:52:16.928Z,1.80
2018-09-15T23:55:21.856Z,2.13
2018-09-15T23:58:26.771Z,1.80
